Kezdőlap
METAR-TAF:

METAR-TAF

Repülőterek :

Belgrád, Szerbia

földrajzi szélesség: 44-49N, földrajzi hosszúság: 020-17E, magasság: 96 m

Jelenlegi meteorológiai megfigyelések

A jelentés 26 perccel ezelõtt készült, 22:30 UTC
Dél-délkeleti szél 5 kt
Hőmérséklet 10°C
Páratartalom 71%
Légköri nyomás 1027 hPa
Látótávolság 10 km, vagy több
felhőtlen 1500 m magasságban, és nincs gomolyfelhõ

METAR: LYBE 132230Z 16005KT CAVOK 10/05 Q1027 NOSIG

Idő: 23:56 (22:56 UTC)

Előrejelzés

A jelentés 5 órával és 56 perccel ezelõtt készült, 17:00 UTC
Az előrejelzés 13-én 18 óra UTC és 14-én 18 óra UTC között érvényes
Délkeleti szél 8 kt
Látótávolság 10 km, vagy több
felhőtlen 1500 m magasságban, és nincs gomolyfelhõ
14-én 02 óra UTC és 14-én 04 óra UTC között fokozatosan kialakuló
Északnyugati szél 10 kt

TAF: LYBE 131700Z 1318/1418 13008KT CAVOK TX15/1412Z TN08/1405Z BECMG 1402/1404 31010KT

Meteorológiai megfigyelések és előrejelzések több, mint 4000 repülőtéren (METAR és TAF jelentéseket).

A térképen piros és sárga pontok jelzik az elérhető meteorológiai állomásokat.

Mozgassa az egeret a pont fölött, hogy megjelenjen az állomás neve.

Azután kattintson az időjárási megfigyelések és előrejelzések megtekintéséhez.

A térkép megváltoztatása: kattintson a fekete keresztel jelölt zöld gombra ráközelítéshez, a vonallal jelölt zöld gombra távolításhoz, vagy a zöld nyilakra a szomszédos térképek eléréséhez.


METAR-TAF: